Decoded Metar for PAJN (JUNEAU in AK, USA) (IATA:JNU) | Meteo·Mobile Aviation Weather
aviador You're here:

PAJN Decoded Metar

JUNEAU in AK, USA
Report Time2019-01-21 23:53:00
UTC Time2019-01-22 00:50:59
Flight Rules vfr VFR
Wind090° at 13 kt
W.Decomp.*RWY 08: 12.8 kt HW 2.3 kt LCW
W.Rank090° ranks 3
Current wind is above 090° avg. (8.8)
Visibility9999 m
Phenomena:Light Rain
Clouds:Few 007 Hf
Broken 060 Hf
Overcast 080 Hf
Ceiling6,000 ft
Temp02°C (ISA -13)
Dew Point02°C (100% RH)
AAT-4.4°C
QNH1009 hPa
Density Alt-1,329 ft
Elevation16 ft
Report Wrong Elevation
Raw Report
PAJN 212353Z 09013KT 10SM -RA FEW007 BKN060 OVC080 02/02 A2981=

Extra information for PAJN:More info

Metar Taf Metar & Taf Last 4 Metars F.Rules Stats Wind Profile Meteogram Temp Stats Airport Information Weather charts Add Link Nearby VenuesMetar ALERT Operation Metar Decoded Social comments

AIRNAV info for PAJN